Time;durP1;ratioP1;P1;durP2;ratioP2;P2;SDS_P1;SDS_P2;PMS_P1;PMS_P2;Temp;Humidity;BMP_temperature;BMP_pressure;BME280_temperature;BME280_humidity;BME280_pressure;Samples;Min_cycle;Max_cycle;Signal;HPM_P1;HPM_P2
2023/01/23 00:00:35;;;;;;;10.60;6.00;;;-0.30;99.90;;;;;;5070190;28;20970;-73
2023/01/23 00:03:02;;;;;;;16.23;5.93;;;-0.30;99.90;;;;;;5070239;28;20621;-72
2023/01/23 00:05:27;;;;;;;10.23;5.13;;;-0.30;99.90;;;;;;5070776;28;20424;-72
2023/01/23 00:07:53;;;;;;;12.23;6.30;;;-0.30;99.90;;;;;;5071123;28;20517;-72
2023/01/23 00:10:19;;;;;;;10.43;5.40;;;-0.30;99.90;;;;;;5070547;28;20188;-73
2023/01/23 00:12:45;;;;;;;14.80;6.93;;;-0.30;99.90;;;;;;5070301;28;20624;-72
2023/01/23 00:15:12;;;;;;;9.63;5.60;;;-0.30;99.90;;;;;;5066751;28;20186;-73
2023/01/23 00:17:40;;;;;;;10.17;4.43;;;-0.30;99.90;;;;;;5061100;28;20423;-72
2023/01/23 00:20:09;;;;;;;11.10;6.20;;;-0.30;99.90;;;;;;5070939;28;20500;-73
2023/01/23 00:22:35;;;;;;;11.00;5.57;;;-0.40;99.90;;;;;;5061268;28;20442;-72
2023/01/23 00:25:00;;;;;;;9.77;4.83;;;-0.40;99.90;;;;;;5070842;28;20891;-73
2023/01/23 00:27:26;;;;;;;13.23;6.77;;;-0.30;99.90;;;;;;5059730;28;20189;-72
2023/01/23 00:29:52;;;;;;;9.23;4.77;;;-0.40;99.90;;;;;;5067440;28;20297;-72
2023/01/23 00:32:18;;;;;;;9.37;6.10;;;-0.40;99.90;;;;;;5070271;28;20582;-72
2023/01/23 00:34:45;;;;;;;10.50;5.87;;;-0.40;99.90;;;;;;5070545;28;20558;-72
2023/01/23 00:37:11;;;;;;;14.57;5.90;;;-0.40;99.90;;;;;;5070591;28;20192;-72
2023/01/23 00:39:37;;;;;;;10.27;5.80;;;-0.40;99.90;;;;;;5069987;28;20450;-73
2023/01/23 00:42:03;;;;;;;10.23;5.70;;;-0.40;99.90;;;;;;5070015;28;20802;-72
2023/01/23 00:44:29;;;;;;;10.97;6.40;;;-0.40;99.90;;;;;;5070051;28;20186;-72
2023/01/23 00:46:55;;;;;;;17.70;5.60;;;-0.50;99.90;;;;;;5074320;28;20260;-72
2023/01/23 00:49:21;;;;;;;12.30;5.80;;;-0.50;99.90;;;;;;5074148;28;20616;-72
2023/01/23 00:51:47;;;;;;;9.37;5.90;;;-0.60;99.90;;;;;;5073900;28;20457;-72
2023/01/23 00:54:12;;;;;;;8.87;4.37;;;-0.50;99.90;;;;;;5074081;28;20181;-72
2023/01/23 00:56:38;;;;;;;12.03;5.60;;;-0.70;99.90;;;;;;5070739;28;20193;-72
2023/01/23 00:59:04;;;;;;;11.70;6.03;;;-0.60;99.90;;;;;;5074150;28;20195;-73
2023/01/23 01:01:31;;;;;;;8.73;4.93;;;-0.60;99.90;;;;;;5073351;28;20201;-72
2023/01/23 01:03:57;;;;;;;10.97;5.87;;;-0.60;99.90;;;;;;5074051;28;20419;-73
2023/01/23 01:06:23;;;;;;;10.00;5.77;;;-0.60;99.90;;;;;;5073948;28;20422;-72
2023/01/23 01:08:49;;;;;;;10.23;5.40;;;-0.60;99.90;;;;;;5074182;28;20423;-72
2023/01/23 01:11:15;;;;;;;13.83;6.50;;;-0.60;99.90;;;;;;5089686;28;20547;-72
2023/01/23 01:13:41;;;;;;;11.23;6.00;;;-0.60;99.90;;;;;;5073689;28;20197;-72
2023/01/23 01:16:07;;;;;;;17.00;7.50;;;-0.60;99.90;;;;;;5067915;28;20213;-72
2023/01/23 01:18:33;;;;;;;10.27;5.73;;;-0.60;99.90;;;;;;5065991;28;20434;-73
2023/01/23 01:20:59;;;;;;;12.70;5.30;;;-0.50;99.90;;;;;;5073571;28;20474;-72
2023/01/23 01:23:25;;;;;;;13.70;4.80;;;-0.50;99.90;;;;;;5073201;28;20189;-72
2023/01/23 01:25:51;;;;;;;8.93;5.23;;;-0.50;99.90;;;;;;5071085;28;20411;-73
2023/01/23 01:28:17;;;;;;;13.63;6.30;;;-0.50;99.90;;;;;;5058100;28;20209;-73
2023/01/23 01:30:42;;;;;;;12.90;6.23;;;-0.50;99.90;;;;;;5067381;28;20686;-73
2023/01/23 01:33:09;;;;;;;9.93;6.50;;;-0.50;99.90;;;;;;5072775;28;20199;-73
2023/01/23 01:35:37;;;;;;;12.20;6.53;;;-0.50;99.90;;;;;;5073386;28;20526;-72
2023/01/23 01:38:03;;;;;;;14.43;7.37;;;-0.50;99.90;;;;;;5073568;28;20447;-72
2023/01/23 01:40:32;;;;;;;14.00;6.33;;;-0.50;99.90;;;;;;5076781;28;20470;-72
2023/01/23 01:43:04;;;;;;;11.90;5.83;;;-0.50;99.90;;;;;;5071772;28;20201;-72
2023/01/23 01:46:08;;;;;;;16.40;6.00;;;-0.60;99.90;;;;;;5065619;28;20427;-72
2023/01/23 01:49:09;;;;;;;13.40;6.57;;;-0.60;99.90;;;;;;5062833;28;20465;-72
2023/01/23 01:51:38;;;;;;;11.90;6.23;;;-0.50;99.90;;;;;;5073509;28;20429;-72
2023/01/23 01:54:27;;;;;;;14.43;5.83;;;-0.50;99.90;;;;;;5073528;28;20546;-72
2023/01/23 01:56:59;;;;;;;8.40;4.70;;;-0.60;99.90;;;;;;5072586;28;21030;-72
2023/01/23 01:59:28;;;;;;;11.37;6.03;;;-0.50;99.90;;;;;;5072852;28;20423;-72
2023/01/23 02:02:03;;;;;;;11.90;6.67;;;-0.50;99.90;;;;;;5072086;28;20773;-72
2023/01/23 02:04:32;;;;;;;13.57;6.53;;;-0.60;99.90;;;;;;5059896;28;20871;-72
2023/01/23 02:07:01;;;;;;;13.00;5.97;;;-0.50;99.90;;;;;;5073037;28;20420;-72
2023/01/23 02:09:26;;;;;;;13.10;6.07;;;-0.50;99.90;;;;;;5072725;28;20741;-72
2023/01/23 02:11:53;;;;;;;13.23;6.80;;;-0.50;99.90;;;;;;5072227;28;20430;-72
2023/01/23 02:14:19;;;;;;;16.50;7.10;;;-0.60;99.90;;;;;;5072425;28;20264;-72
2023/01/23 02:16:49;;;;;;;12.33;6.50;;;-0.50;99.90;;;;;;5072691;28;20420;-73
2023/01/23 02:19:27;;;;;;;13.70;7.20;;;-0.50;99.90;;;;;;5072760;28;21320;-72
2023/01/23 02:22:03;;;;;;;12.07;6.23;;;-0.50;99.90;;;;;;5071912;28;20474;-72
2023/01/23 02:24:49;;;;;;;14.70;6.63;;;-0.50;99.90;;;;;;5072197;28;20433;-72
2023/01/23 02:27:14;;;;;;;14.40;5.97;;;-0.50;99.90;;;;;;5072390;28;20407;-72
2023/01/23 02:29:45;;;;;;;11.00;5.73;;;-0.50;99.90;;;;;;5072074;28;20449;-72
2023/01/23 02:32:11;;;;;;;14.00;6.20;;;-0.50;99.90;;;;;;5072299;28;20177;-72
2023/01/23 02:34:37;;;;;;;9.37;5.60;;;-0.50;99.90;;;;;;5072140;28;20415;-72
2023/01/23 02:37:05;;;;;;;10.93;6.83;;;-0.50;99.90;;;;;;5072162;28;20625;-72
2023/01/23 02:39:31;;;;;;;14.53;6.03;;;-0.50;99.90;;;;;;5071941;28;20488;-72
2023/01/23 02:41:58;;;;;;;9.10;6.17;;;-0.50;99.90;;;;;;5072153;28;20561;-72
2023/01/23 02:44:30;;;;;;;13.50;6.57;;;-0.50;99.90;;;;;;5071586;28;20428;-72
2023/01/23 02:46:59;;;;;;;13.80;7.13;;;-0.50;99.90;;;;;;5072402;28;20489;-72
2023/01/23 02:49:25;;;;;;;12.80;6.80;;;-0.50;99.90;;;;;;5072273;28;20480;-72
2023/01/23 02:51:52;;;;;;;13.20;6.60;;;-0.50;99.90;;;;;;5071552;28;20423;-72
2023/01/23 02:54:19;;;;;;;13.50;5.90;;;-0.50;99.90;;;;;;5071942;28;20602;-72
2023/01/23 02:56:45;;;;;;;13.40;6.50;;;-0.50;99.90;;;;;;5086103;22;20410;-72
2023/01/23 03:01:56;;;;;;;15.33;7.10;;;-0.50;99.90;;;;;;5065776;28;20513;-72
2023/01/23 03:04:22;;;;;;;14.40;6.93;;;-0.60;99.90;;;;;;5058352;28;20438;-72
2023/01/23 03:06:47;;;;;;;15.17;7.27;;;-0.50;99.90;;;;;;5062029;28;20525;-73
2023/01/23 03:09:15;;;;;;;15.53;6.40;;;-0.50;99.90;;;;;;5064777;28;20190;-72
2023/01/23 03:11:42;;;;;;;15.30;5.97;;;-0.50;99.90;;;;;;5060909;28;20201;-72
2023/01/23 03:14:20;;;;;;;15.83;7.50;;;-0.40;99.90;;;;;;5057952;28;20880;-72
2023/01/23 03:16:50;;;;;;;16.00;7.30;;;-0.50;99.90;;;;;;5071610;28;20432;-72
2023/01/23 03:19:18;;;;;;;15.57;7.73;;;-0.50;99.90;;;;;;5057977;28;20827;-72
2023/01/23 03:21:44;;;;;;;15.40;7.93;;;-0.50;99.90;;;;;;5059014;28;20528;-72
2023/01/23 03:24:12;;;;;;;17.23;7.03;;;-0.50;99.90;;;;;;5069639;28;20422;-72
2023/01/23 03:26:43;;;;;;;13.00;6.60;;;-0.50;99.90;;;;;;5068349;28;20421;-72
2023/01/23 03:32:04;;;;;;;13.53;6.73;;;-0.50;99.90;;;;;;5067897;28;20423;-72
2023/01/23 03:34:30;;;;;;;12.10;7.40;;;-0.50;99.90;;;;;;5071375;28;20419;-72
2023/01/23 03:36:57;;;;;;;13.10;6.90;;;-0.50;99.90;;;;;;5068023;28;20750;-73
2023/01/23 03:42:07;;;;;;;10.30;7.00;;;-0.50;99.90;;;;;;5057333;28;20493;-72
2023/01/23 03:44:33;;;;;;;18.03;7.70;;;-0.50;99.90;;;;;;5065938;28;20857;-72
2023/01/23 03:46:58;;;;;;;13.20;7.47;;;-0.50;99.90;;;;;;5067774;28;20185;-72
2023/01/23 03:49:24;;;;;;;12.50;7.00;;;-0.50;99.90;;;;;;5057721;28;20195;-72
2023/01/23 03:51:49;;;;;;;12.43;7.57;;;-0.50;99.90;;;;;;5061598;28;20223;-72
2023/01/23 03:54:15;;;;;;;13.17;7.03;;;-0.50;99.90;;;;;;5063962;28;20600;-72
2023/01/23 03:56:41;;;;;;;16.27;8.37;;;-0.50;99.90;;;;;;5055648;28;20231;-72
2023/01/23 03:59:07;;;;;;;9.73;7.00;;;-0.50;99.90;;;;;;5066426;28;20188;-72
2023/01/23 04:01:33;;;;;;;17.87;7.63;;;-0.50;99.90;;;;;;5070293;28;20496;-72
2023/01/23 04:03:59;;;;;;;13.20;6.93;;;-0.50;99.90;;;;;;5055053;28;20424;-72
2023/01/23 04:06:25;;;;;;;12.83;7.27;;;-0.60;99.90;;;;;;5059995;28;20493;-72
2023/01/23 04:08:51;;;;;;;13.63;7.17;;;-0.50;99.90;;;;;;5056505;28;20307;-72
2023/01/23 04:11:18;;;;;;;11.07;7.30;;;-0.50;99.90;;;;;;5070934;28;20419;-72
2023/01/23 04:13:45;;;;;;;15.27;7.60;;;-0.50;99.90;;;;;;5070191;28;20423;-72
2023/01/23 04:16:11;;;;;;;12.33;6.60;;;-0.50;99.90;;;;;;5070787;28;20425;-72
2023/01/23 04:18:37;;;;;;;23.77;7.87;;;-0.50;99.90;;;;;;5057514;28;20522;-72
2023/01/23 04:21:03;;;;;;;20.20;8.40;;;-0.50;99.90;;;;;;5073792;28;20463;-72
2023/01/23 04:23:29;;;;;;;16.53;7.37;;;-0.50;99.90;;;;;;5071387;28;20189;-72
2023/01/23 04:25:55;;;;;;;13.77;8.00;;;-0.50;99.90;;;;;;5054784;28;20182;-72
2023/01/23 04:28:20;;;;;;;13.33;6.90;;;-0.50;99.90;;;;;;5069441;28;20459;-72
2023/01/23 04:30:46;;;;;;;14.30;6.70;;;-0.50;99.90;;;;;;5054491;28;20657;-72
2023/01/23 04:33:12;;;;;;;17.20;7.63;;;-0.50;99.90;;;;;;5057296;28;20250;-72
2023/01/23 04:35:37;;;;;;;15.73;7.10;;;-0.40;99.90;;;;;;5074755;28;20180;-73
2023/01/23 04:38:03;;;;;;;18.03;8.00;;;-0.60;99.90;;;;;;5071884;28;20766;-72
2023/01/23 04:40:29;;;;;;;14.57;7.77;;;-0.50;99.90;;;;;;5063634;28;20232;-73
2023/01/23 04:42:54;;;;;;;15.80;8.00;;;-0.60;99.90;;;;;;5073954;28;20219;-72
2023/01/23 04:45:20;;;;;;;16.27;7.60;;;-0.60;99.90;;;;;;5069690;28;20186;-73
2023/01/23 04:47:46;;;;;;;18.57;9.20;;;-0.50;99.90;;;;;;5073343;28;20195;-72
2023/01/23 04:50:11;;;;;;;15.83;8.37;;;-0.50;99.90;;;;;;5068259;28;20193;-72
2023/01/23 04:52:37;;;;;;;18.73;8.50;;;-0.50;99.90;;;;;;5066965;28;20189;-71
2023/01/23 04:55:04;;;;;;;21.07;7.50;;;-0.50;99.90;;;;;;5067671;28;20194;-71
2023/01/23 04:57:30;;;;;;;17.07;7.83;;;-0.50;99.90;;;;;;5064960;28;20446;-71
2023/01/23 04:59:55;;;;;;;16.27;8.87;;;-0.50;99.90;;;;;;5064145;28;20910;-71
2023/01/23 05:02:21;;;;;;;18.67;8.70;;;-0.50;99.90;;;;;;5073663;28;20215;-71
2023/01/23 05:04:46;;;;;;;17.60;8.87;;;-0.50;99.90;;;;;;5055120;28;20259;-71
2023/01/23 05:07:12;;;;;;;15.53;7.50;;;-0.50;99.90;;;;;;5066429;28;20185;-71
2023/01/23 05:09:38;;;;;;;12.00;7.20;;;-0.50;99.90;;;;;;5060253;28;20229;-71
2023/01/23 05:12:05;;;;;;;15.70;7.17;;;-0.50;99.90;;;;;;5060771;28;20268;-71
2023/01/23 05:14:30;;;;;;;15.20;7.47;;;-0.50;99.90;;;;;;5072692;28;20501;-71
2023/01/23 05:16:56;;;;;;;16.50;9.30;;;-0.40;99.90;;;;;;5073223;28;20489;-71
2023/01/23 05:19:22;;;;;;;15.70;8.30;;;-0.40;99.90;;;;;;5073729;28;20498;-71
2023/01/23 05:21:47;;;;;;;19.00;8.30;;;-0.40;99.90;;;;;;5061652;28;20217;-71
2023/01/23 05:24:13;;;;;;;14.00;7.97;;;-0.50;99.90;;;;;;5066600;28;20181;-71
2023/01/23 05:26:39;;;;;;;14.30;9.03;;;-0.50;99.90;;;;;;5065098;28;20177;-71
2023/01/23 05:29:04;;;;;;;22.60;9.13;;;-0.50;99.90;;;;;;5055435;28;20182;-71
2023/01/23 05:31:30;;;;;;;17.77;8.77;;;-0.50;99.90;;;;;;5064490;28;20629;-71
2023/01/23 05:33:56;;;;;;;14.43;6.93;;;-0.50;99.90;;;;;;5055887;28;20694;-71
2023/01/23 05:36:21;;;;;;;20.90;9.27;;;-0.50;99.90;;;;;;5063388;28;20580;-71
2023/01/23 05:38:47;;;;;;;19.23;9.70;;;-0.50;99.90;;;;;;5060071;28;20195;-71
2023/01/23 05:41:13;;;;;;;25.60;11.20;;;-0.50;99.90;;;;;;5068680;28;20614;-71
2023/01/23 05:43:38;;;;;;;20.30;8.23;;;-0.50;99.90;;;;;;5064321;28;20182;-71
2023/01/23 05:46:04;;;;;;;18.47;8.30;;;-0.50;99.90;;;;;;5068104;28;20636;-71
2023/01/23 05:48:29;;;;;;;17.93;7.87;;;-0.40;99.90;;;;;;5060778;28;20244;-71
2023/01/23 05:50:55;;;;;;;19.30;9.23;;;-0.40;99.90;;;;;;5059552;28;20577;-71
2023/01/23 05:53:20;;;;;;;17.03;8.43;;;-0.50;99.90;;;;;;5060303;28;20203;-71
2023/01/23 05:55:46;;;;;;;19.87;8.97;;;-0.50;99.90;;;;;;5072323;28;20668;-71
2023/01/23 05:58:12;;;;;;;16.60;8.27;;;-0.50;99.90;;;;;;5062329;28;20246;-71
2023/01/23 06:00:37;;;;;;;17.37;9.60;;;-0.50;99.90;;;;;;5068269;28;20236;-71
2023/01/23 06:03:03;;;;;;;14.07;7.20;;;-0.40;99.90;;;;;;5072759;28;20192;-71
2023/01/23 06:05:29;;;;;;;13.90;7.63;;;-0.50;99.90;;;;;;5059041;28;20619;-71
2023/01/23 06:07:54;;;;;;;18.60;8.40;;;-0.50;99.90;;;;;;5053325;28;20685;-71
2023/01/23 06:10:20;;;;;;;17.17;7.73;;;-0.50;99.90;;;;;;5066119;28;20190;-71
2023/01/23 06:12:46;;;;;;;17.07;8.30;;;-0.50;99.90;;;;;;5065488;28;20645;-71
2023/01/23 06:15:11;;;;;;;13.43;7.80;;;-0.50;99.90;;;;;;5065798;28;20196;-71
2023/01/23 06:17:37;;;;;;;18.20;7.73;;;-0.50;99.90;;;;;;5059379;28;20622;-71
2023/01/23 06:20:03;;;;;;;16.60;8.10;;;-0.50;99.90;;;;;;5059043;28;20186;-71
2023/01/23 06:22:30;;;;;;;12.77;6.93;;;-0.50;99.90;;;;;;5065557;28;20238;-71
2023/01/23 06:24:55;;;;;;;15.57;7.70;;;-0.50;99.90;;;;;;5064391;28;20527;-71
2023/01/23 06:27:21;;;;;;;17.93;8.33;;;-0.50;99.90;;;;;;5062153;28;20551;-71
2023/01/23 06:29:47;;;;;;;21.73;7.57;;;-0.50;99.90;;;;;;5072342;28;20181;-71
2023/01/23 06:32:12;;;;;;;19.90;8.80;;;-0.40;99.90;;;;;;5072497;28;20599;-71
2023/01/23 06:34:38;;;;;;;22.63;8.67;;;-0.40;99.90;;;;;;5059083;28;20261;-72
2023/01/23 06:37:04;;;;;;;18.37;8.13;;;-0.40;99.90;;;;;;5066576;28;20186;-72
2023/01/23 06:39:29;;;;;;;20.13;9.10;;;-0.40;99.90;;;;;;5066798;28;20589;-72
2023/01/23 06:41:56;;;;;;;17.03;7.80;;;-0.40;99.90;;;;;;5072260;28;20312;-72
2023/01/23 06:44:22;;;;;;;13.03;8.00;;;-0.40;99.90;;;;;;5069312;28;20185;-72
2023/01/23 06:46:48;;;;;;;21.17;8.37;;;-0.40;99.90;;;;;;5071848;28;20933;-72
2023/01/23 06:49:14;;;;;;;19.53;9.03;;;-0.40;99.90;;;;;;5072089;28;20411;-72
2023/01/23 06:51:39;;;;;;;13.20;8.20;;;-0.40;99.90;;;;;;5058295;28;20193;-72
2023/01/23 06:54:05;;;;;;;27.23;10.03;;;-0.40;99.90;;;;;;5060667;28;20252;-73
2023/01/23 06:56:30;;;;;;;16.73;7.90;;;-0.40;99.90;;;;;;5056608;28;20185;-72
2023/01/23 06:58:56;;;;;;;16.40;7.90;;;-0.40;99.90;;;;;;5062361;28;20288;-72
2023/01/23 07:01:22;;;;;;;15.67;8.90;;;-0.40;99.90;;;;;;5071499;28;20633;-72
2023/01/23 07:03:48;;;;;;;20.03;8.30;;;-0.40;99.90;;;;;;5071717;28;20177;-72
2023/01/23 07:06:15;;;;;;;22.87;8.40;;;-0.40;99.90;;;;;;5067016;28;20420;-72
2023/01/23 07:08:41;;;;;;;21.33;7.97;;;-0.40;99.90;;;;;;5063805;28;20447;-74
2023/01/23 07:11:07;;;;;;;15.90;7.40;;;-0.40;99.90;;;;;;5057274;28;20426;-72
2023/01/23 07:13:33;;;;;;;17.07;8.20;;;-0.40;99.90;;;;;;5051126;28;20425;-72
2023/01/23 07:15:59;;;;;;;25.67;9.50;;;-0.40;99.90;;;;;;5057155;28;20427;-72
2023/01/23 07:18:27;;;;;;;24.43;8.87;;;-0.40;99.90;;;;;;5075698;28;20885;-72
2023/01/23 07:20:53;;;;;;;16.53;6.00;;;-0.40;99.90;;;;;;5076417;28;20206;-74
2023/01/23 07:23:19;;;;;;;16.70;7.53;;;-0.40;99.90;;;;;;5063694;28;20416;-74
2023/01/23 07:25:45;;;;;;;18.03;7.70;;;-0.40;99.90;;;;;;5058323;28;20967;-73
2023/01/23 07:28:10;;;;;;;15.67;7.63;;;-0.40;99.90;;;;;;5063564;28;20185;-73
2023/01/23 07:30:36;;;;;;;19.97;7.87;;;-0.40;99.90;;;;;;5071289;28;20189;-73
2023/01/23 07:33:02;;;;;;;14.67;7.20;;;-0.40;99.90;;;;;;5077280;28;20217;-73
2023/01/23 07:35:28;;;;;;;18.50;7.77;;;-0.40;99.90;;;;;;5063403;28;20507;-73
2023/01/23 07:37:54;;;;;;;16.90;8.20;;;-0.40;99.90;;;;;;5092294;28;20433;-73
2023/01/23 07:40:20;;;;;;;12.57;6.90;;;-0.40;99.90;;;;;;5083391;28;20291;-73
2023/01/23 07:42:45;;;;;;;19.87;9.43;;;-0.40;99.90;;;;;;5071017;28;21092;-73
2023/01/23 07:45:12;;;;;;;21.40;8.27;;;-0.40;99.90;;;;;;5100186;28;20181;-73
2023/01/23 07:47:38;;;;;;;14.90;7.73;;;-0.40;99.90;;;;;;5071626;28;20265;-73
2023/01/23 07:50:10;;;;;;;22.53;8.60;;;-0.40;99.90;;;;;;5063392;28;20570;-73
2023/01/23 07:52:36;;;;;;;16.80;8.40;;;-0.30;99.90;;;;;;5091122;28;20801;-73
2023/01/23 07:55:02;;;;;;;15.63;6.37;;;-0.30;99.90;;;;;;5066173;28;20891;-73
2023/01/23 07:57:28;;;;;;;13.80;6.77;;;-0.40;99.90;;;;;;5084156;28;20446;-73
2023/01/23 07:59:54;;;;;;;16.30;7.77;;;-0.30;99.90;;;;;;5070905;28;20272;-73
2023/01/23 08:02:19;;;;;;;15.00;7.00;;;-0.30;99.90;;;;;;5070787;28;20271;-73
2023/01/23 08:04:45;;;;;;;20.93;8.30;;;-0.30;99.90;;;;;;5079775;28;20215;-73
2023/01/23 08:07:10;;;;;;;13.27;7.57;;;-0.30;99.90;;;;;;5091742;28;20184;-73
2023/01/23 08:09:37;;;;;;;14.00;7.60;;;-0.40;99.90;;;;;;5091209;28;20223;-73
2023/01/23 08:12:03;;;;;;;13.37;7.40;;;-0.40;99.90;;;;;;5091165;28;20183;-73
2023/01/23 08:14:29;;;;;;;17.43;8.03;;;-0.30;99.90;;;;;;5090911;28;20513;-73
2023/01/23 08:16:55;;;;;;;14.30;7.27;;;-0.30;99.90;;;;;;5091702;28;20530;-73
2023/01/23 08:19:21;;;;;;;18.90;6.83;;;-0.30;99.90;;;;;;5091383;28;20287;-73
2023/01/23 08:21:46;;;;;;;12.30;5.93;;;-0.30;99.90;;;;;;5088408;28;20465;-73
2023/01/23 08:24:13;;;;;;;14.70;7.20;;;-0.30;99.90;;;;;;5077532;28;20260;-73
2023/01/23 08:26:40;;;;;;;15.73;8.10;;;-0.20;99.90;;;;;;5079421;28;20766;-73
2023/01/23 08:29:06;;;;;;;22.17;7.87;;;-0.20;99.90;;;;;;5083467;28;20463;-73
2023/01/23 08:31:31;;;;;;;16.57;8.27;;;-0.20;99.90;;;;;;5078766;28;20519;-73
2023/01/23 08:33:57;;;;;;;15.97;8.70;;;-0.20;99.90;;;;;;5090166;28;20192;-73
2023/01/23 08:36:23;;;;;;;13.27;6.83;;;-0.10;99.90;;;;;;5073744;28;20510;-73
2023/01/23 08:38:48;;;;;;;21.00;9.33;;;-0.10;99.90;;;;;;5076661;28;20249;-73
2023/01/23 08:41:14;;;;;;;19.90;9.10;;;-0.10;99.90;;;;;;5075362;28;20269;-73
2023/01/23 08:43:40;;;;;;;20.77;7.20;;;0.00;99.90;;;;;;5083716;28;20232;-73
2023/01/23 08:46:07;;;;;;;12.23;6.87;;;0.00;99.90;;;;;;5071443;28;20479;-73
2023/01/23 08:48:34;;;;;;;22.77;10.20;;;0.10;99.90;;;;;;5077076;28;20525;-72
2023/01/23 08:51:05;;;;;;;10.30;6.80;;;0.10;99.90;;;;;;5091116;28;20934;-73
2023/01/23 08:53:32;;;;;;;13.37;7.20;;;0.20;99.90;;;;;;5076971;28;20431;-73
2023/01/23 08:56:01;;;;;;;16.87;7.53;;;0.20;99.90;;;;;;5077258;28;20422;-73
2023/01/23 08:58:27;;;;;;;20.50;8.20;;;0.20;99.90;;;;;;5083761;28;20924;-73
2023/01/23 09:00:53;;;;;;;17.07;8.30;;;0.30;99.90;;;;;;5071585;28;20469;-73
2023/01/23 09:03:19;;;;;;;16.40;7.53;;;0.30;99.90;;;;;;5078946;28;20521;-73
2023/01/23 09:05:44;;;;;;;16.20;7.30;;;0.30;99.90;;;;;;5078076;28;20185;-73
2023/01/23 09:08:10;;;;;;;12.33;5.47;;;0.30;99.90;;;;;;5087100;28;20177;-73
2023/01/23 09:10:35;;;;;;;14.20;7.07;;;0.30;99.90;;;;;;5086576;28;20188;-73
2023/01/23 09:13:02;;;;;;;16.37;7.00;;;0.30;99.90;;;;;;5053996;28;20292;-73
2023/01/23 09:15:27;;;;;;;10.37;5.90;;;0.40;99.90;;;;;;5071756;28;20177;-73
2023/01/23 09:17:53;;;;;;;11.97;6.60;;;0.40;99.90;;;;;;5080808;28;21093;-73
2023/01/23 09:20:19;;;;;;;13.80;6.70;;;0.40;99.90;;;;;;5067302;28;20205;-73
2023/01/23 09:22:44;;;;;;;12.77;6.33;;;0.40;99.90;;;;;;5070054;28;20181;-73
2023/01/23 09:25:11;;;;;;;13.10;5.50;;;0.40;99.90;;;;;;5087882;28;20200;-73
2023/01/23 09:27:37;;;;;;;13.03;7.37;;;0.40;99.90;;;;;;5069134;28;20462;-73
2023/01/23 09:30:03;;;;;;;21.87;7.43;;;0.50;99.90;;;;;;5086189;28;20438;-73
2023/01/23 09:32:29;;;;;;;18.43;6.40;;;0.40;99.90;;;;;;5080622;28;20176;-73
2023/01/23 09:34:54;;;;;;;13.07;5.60;;;0.40;99.90;;;;;;5089898;28;20421;-73
2023/01/23 09:37:20;;;;;;;9.97;5.80;;;0.40;99.90;;;;;;5073455;28;20215;-73
2023/01/23 09:39:46;;;;;;;11.87;5.67;;;0.40;99.90;;;;;;5084284;28;20521;-73
2023/01/23 09:42:31;;;;;;;15.30;7.17;;;0.40;99.90;;;;;;5093418;28;20204;-73
2023/01/23 09:45:02;;;;;;;18.60;7.57;;;0.50;99.90;;;;;;5089758;28;20208;-73
2023/01/23 09:47:47;;;;;;;12.23;5.23;;;0.50;99.90;;;;;;5083796;28;20461;-73
2023/01/23 09:50:21;;;;;;;14.13;7.23;;;0.50;99.90;;;;;;5093292;28;20426;-73
2023/01/23 09:52:53;;;;;;;18.90;8.17;;;0.40;99.90;;;;;;5092657;28;20419;-73
2023/01/23 09:55:38;;;;;;;16.50;7.07;;;0.40;99.90;;;;;;5080680;28;20909;-73
2023/01/23 09:58:05;;;;;;;12.27;5.47;;;0.40;99.90;;;;;;5085437;28;20912;-73
2023/01/23 10:00:35;;;;;;;10.50;5.53;;;0.40;99.90;;;;;;5065125;28;20474;-73
2023/01/23 10:03:08;;;;;;;10.30;6.20;;;0.30;99.90;;;;;;5078228;28;20906;-73
2023/01/23 10:05:39;;;;;;;10.40;5.80;;;0.30;99.90;;;;;;5080841;28;20411;-72
2023/01/23 10:08:20;;;;;;;14.00;6.13;;;0.30;99.90;;;;;;5059427;28;20505;-72
2023/01/23 10:10:49;;;;;;;14.23;6.13;;;0.30;99.90;;;;;;5087512;28;21150;-72
2023/01/23 10:13:39;;;;;;;9.67;5.43;;;0.30;99.90;;;;;;5092298;28;20917;-72
2023/01/23 10:16:28;;;;;;;18.23;5.93;;;0.30;99.90;;;;;;5090129;28;20414;-73
2023/01/23 10:19:15;;;;;;;11.00;5.17;;;0.30;99.90;;;;;;5092100;28;20517;-73
2023/01/23 10:21:51;;;;;;;12.33;5.67;;;0.40;99.90;;;;;;5091712;28;20454;-73
2023/01/23 10:24:19;;;;;;;11.73;5.27;;;0.50;99.90;;;;;;5067020;28;20418;-73
2023/01/23 10:26:46;;;;;;;9.30;4.10;;;0.60;99.90;;;;;;5092727;28;20848;-73
2023/01/23 10:29:25;;;;;;;11.50;5.30;;;0.70;99.90;;;;;;5071732;28;21081;-72
2023/01/23 10:31:56;;;;;;;8.73;5.03;;;0.70;99.90;;;;;;5083721;28;20418;-73
2023/01/23 10:34:33;;;;;;;11.00;5.10;;;0.80;99.90;;;;;;5092371;28;21195;-73
2023/01/23 10:37:28;;;;;;;12.90;5.83;;;0.80;99.90;;;;;;5089866;28;20421;-75
2023/01/23 10:40:09;;;;;;;11.60;4.67;;;0.70;99.90;;;;;;5088191;28;20430;-74
2023/01/23 10:42:35;;;;;;;7.80;4.20;;;0.70;99.90;;;;;;5060922;28;20463;-73
2023/01/23 10:45:01;;;;;;;14.10;5.93;;;0.70;99.90;;;;;;5072326;28;20435;-73
2023/01/23 10:47:40;;;;;;;9.47;5.10;;;0.80;99.90;;;;;;5059876;28;20177;-73
2023/01/23 10:50:06;;;;;;;8.03;5.07;;;0.80;99.90;;;;;;5075951;28;20216;-72
2023/01/23 10:52:44;;;;;;;15.20;4.80;;;0.90;99.90;;;;;;5081951;28;21130;-73
2023/01/23 10:55:30;;;;;;;9.23;4.70;;;1.00;99.90;;;;;;5084665;28;20461;-73
2023/01/23 10:58:01;;;;;;;7.80;3.83;;;0.90;99.90;;;;;;5087439;28;20440;-73
2023/01/23 11:00:43;;;;;;;14.10;6.37;;;0.90;99.90;;;;;;5071636;28;20467;-73
2023/01/23 11:03:21;;;;;;;13.40;6.00;;;1.00;99.90;;;;;;5077791;28;20415;-73
2023/01/23 11:06:02;;;;;;;10.40;5.83;;;1.10;99.90;;;;;;5077272;28;20411;-73
2023/01/23 11:08:37;;;;;;;8.83;4.60;;;1.10;99.90;;;;;;5080597;28;20940;-73
2023/01/23 11:11:14;;;;;;;12.50;6.00;;;1.20;99.90;;;;;;5082659;28;20415;-73
2023/01/23 11:13:42;;;;;;;9.93;4.77;;;1.20;99.90;;;;;;5050164;28;20466;-72
2023/01/23 11:16:14;;;;;;;11.97;4.70;;;1.30;99.90;;;;;;5064303;28;20459;-72
2023/01/23 11:18:43;;;;;;;18.70;5.17;;;1.20;99.90;;;;;;5064941;28;20423;-73
2023/01/23 11:21:41;;;;;;;9.03;4.80;;;1.10;99.90;;;;;;5070664;28;20810;-72
2023/01/23 11:24:18;;;;;;;16.43;6.03;;;1.10;99.90;;;;;;5080357;28;20454;-72
2023/01/23 11:26:44;;;;;;;12.60;5.20;;;1.10;99.90;;;;;;5090347;28;20426;-73
2023/01/23 11:29:24;;;;;;;11.03;4.93;;;1.10;99.90;;;;;;5077100;28;20469;-72
2023/01/23 11:32:01;;;;;;;12.60;6.03;;;1.10;99.90;;;;;;5084632;28;20446;-72
2023/01/23 11:34:35;;;;;;;13.80;5.40;;;1.10;99.90;;;;;;5090803;28;20493;-73
2023/01/23 11:37:03;;;;;;;12.97;6.67;;;1.00;99.90;;;;;;5077011;28;20521;-73
2023/01/23 11:39:35;;;;;;;15.53;5.67;;;1.00;99.90;;;;;;5089537;28;20422;-72
2023/01/23 11:42:01;;;;;;;11.17;5.80;;;1.10;99.90;;;;;;5069357;28;20463;-72
2023/01/23 11:44:28;;;;;;;12.37;4.77;;;1.10;99.90;;;;;;5068684;28;20419;-73
2023/01/23 11:47:15;;;;;;;11.63;6.50;;;1.00;99.90;;;;;;5075626;28;21179;-73
2023/01/23 11:50:10;;;;;;;11.00;5.37;;;1.00;99.90;;;;;;5090127;28;20429;-72
2023/01/23 11:53:20;;;;;;;14.30;5.73;;;1.00;99.90;;;;;;5089801;28;20411;-72
2023/01/23 11:55:55;;;;;;;10.00;5.50;;;1.00;99.90;;;;;;5071858;28;20522;-73
2023/01/23 11:58:21;;;;;;;12.80;6.50;;;1.00;99.90;;;;;;5063190;28;20992;-72
2023/01/23 12:00:53;;;;;;;13.37;5.63;;;1.00;99.90;;;;;;5069508;28;20462;-73
2023/01/23 12:03:41;;;;;;;10.70;5.17;;;1.00;99.90;;;;;;5078064;28;20168;-72
2023/01/23 12:06:25;;;;;;;12.53;5.70;;;0.90;99.90;;;;;;5082142;28;20778;-72
2023/01/23 12:08:58;;;;;;;12.57;5.90;;;0.80;99.90;;;;;;5076429;28;20866;-72
2023/01/23 12:11:34;;;;;;;10.60;5.50;;;0.80;99.90;;;;;;5075103;28;20426;-72
2023/01/23 12:14:21;;;;;;;17.17;6.67;;;0.80;99.90;;;;;;5076067;28;20480;-72
2023/01/23 12:16:58;;;;;;;13.30;5.63;;;0.80;99.90;;;;;;5089922;28;20501;-72
2023/01/23 12:19:40;;;;;;;10.97;5.50;;;0.80;99.90;;;;;;5071746;28;21062;-72
2023/01/23 12:22:50;;;;;;;10.90;4.97;;;0.80;99.90;;;;;;5060010;28;20885;-72
2023/01/23 12:25:35;;;;;;;10.50;5.87;;;0.90;99.90;;;;;;5007154;28;20980;-72
2023/01/23 12:28:18;;;;;;;15.10;5.67;;;1.00;99.90;;;;;;4997505;28;20447;-72
2023/01/23 12:30:55;;;;;;;17.97;6.17;;;1.10;99.90;;;;;;5064713;28;20938;-72
2023/01/23 12:33:30;;;;;;;11.97;5.53;;;1.10;99.90;;;;;;5089361;28;20688;-72
2023/01/23 12:36:06;;;;;;;12.03;5.30;;;1.20;99.90;;;;;;5077884;28;20760;-72
2023/01/23 12:38:38;;;;;;;12.07;5.63;;;1.30;99.90;;;;;;5087106;28;20975;-72
2023/01/23 12:41:23;;;;;;;14.07;6.57;;;1.30;99.90;;;;;;5080319;28;20460;-72
2023/01/23 12:44:08;;;;;;;16.80;7.17;;;1.40;99.90;;;;;;5082261;28;20415;-72
2023/01/23 12:46:53;;;;;;;10.40;5.93;;;1.40;99.90;;;;;;5067595;28;20492;-72
2023/01/23 12:49:37;;;;;;;13.47;5.90;;;1.50;99.90;;;;;;5093576;28;20402;-73
2023/01/23 12:52:22;;;;;;;16.90;6.80;;;1.60;99.90;;;;;;5069997;28;20449;-72
2023/01/23 12:55:13;;;;;;;13.60;7.33;;;1.80;99.90;;;;;;5088220;28;20415;-72
2023/01/23 12:57:42;;;;;;;17.43;7.03;;;2.00;99.90;;;;;;5081755;28;20448;-72
2023/01/23 13:00:23;;;;;;;14.80;5.57;;;2.20;99.90;;;;;;5072852;28;21048;-72